In Rescue
 
Open Full Screen Window  High Contrast Mode
Wind Gusting 00 knots
09
April 02, 2020 11:32 PM CDT
Present Weather: Mist
Weather Information
Wind Direction
  320 °
Wind Speed
  09 kt (10 mph)
Wind Gust
  00 kt (0 mph)
Altimeter
30.01 in
Visibility
5 SM
Temperature
-07° C
19° F
Dewpoint
-08° C
18° F
Humidity
93%
1hr Rain Fall
00.02 in.
24hr Rain Fall
00.32 in.
Sky Condition
Overcast @ 1,700 ft
Broken @ 1,100 ft
Broken @ 600 ft
IFR

METAR KDTL 030432Z AUTO 32009KT 5SM BR BKN006 BKN011 OVC017 M07/M08 A3001 RMK AO2 P0002

FAA Disclaimer: The data displayed is for advisory purposes only and is not to be used for flight planning or operations.